Albert J Ellis Airport
KOAJ : now visible

Airfield :











YOU CAN JOIN US ON...

 
LOGIN :

Register | Disclaimer

   EN    FR    IT 

 









Legend :    VFR   Marginal VFR   IFR   Intensive IFR   Very Intensive IFR
Visi :
Ceiling :
>= 8 km
>= 3000ft
5 to 8 km
1000 to 3000 ft
1500m to 5 km
500 to 1000 ft
800 to 1500m
200 to 500 ft
< 800m
< 200 ft
Symbols :   Thunderstorms  Fog  Heavy snow  Heavy precipitations  Wind > 20 kt







- Airport Elevation : 94 ft


KOAJ - Albert J Ellis

CURRENT METAR :
  • 181556Z 18017KT 10SM BKN039 25/16 A3010 RMK AO2 SLP198 T02500161

EXPIRED METARs :
  • 181456Z 19009KT 10SM CLR 24/17 A3010 RMK AO2 SLP195 T02390167 55001
  • 181356Z 20012G18KT 10SM CLR 24/17 A3009 RMK AO2 SLP193 T02390167

TAF KOAJ
Valid from the 18 at 14:00 until the 19 at 12:00 UTC


181413Z 1814/1912 20010G21KT P6SM SCT250
FM190300 17009KT P6SM BKN150
FM191000 18011KT P6SM BKN015 AMD LTD TO CLD VIS AND WIND
KZDC FIR / North America



MET'MAP, your aeronautical weather chart ! - Copyright ORBIFLY December 2007 - Disclaimer

ORBIFLY MET'MAP TEAM :

Programming & Development : Alexandra Zaïnal
Concept & Development : Baudouin d'Aumeries
Co-Development & Prog : Marc-Olivier Méhu
Technical & hardware support : Manuel Goepfert

Contact : metmap@orbifly.com




SOURCES & CREDITS :

   NOAA       Earth
Advisory